createdAt,value
2022-12-14T00:01:45.158Z,10.05
2022-12-14T00:04:16.424Z,10.32
2022-12-14T00:06:43.451Z,11.63
2022-12-14T00:09:10.424Z,11.88
2022-12-14T00:11:37.573Z,12.27
2022-12-14T00:14:05.338Z,10.57
2022-12-14T00:16:34.290Z,12.02
2022-12-14T00:19:02.902Z,10.75
2022-12-14T00:21:30.413Z,11.40
2022-12-14T00:23:59.711Z,10.90
2022-12-14T00:26:30.063Z,11.63
2022-12-14T00:28:59.659Z,11.60
2022-12-14T00:31:26.927Z,12.88
2022-12-14T00:33:54.963Z,15.23
2022-12-14T00:36:22.420Z,14.00
2022-12-14T00:38:49.773Z,12.52
2022-12-14T00:41:17.017Z,12.07
2022-12-14T00:43:44.345Z,11.45
2022-12-14T00:46:11.465Z,11.70
2022-12-14T00:48:38.628Z,10.45
2022-12-14T00:51:06.020Z,11.30
2022-12-14T00:53:33.131Z,11.20
2022-12-14T00:56:08.379Z,10.80
2022-12-14T00:58:35.845Z,11.05
2022-12-14T01:01:08.609Z,10.57
2022-12-14T01:03:36.132Z,10.65
2022-12-14T01:06:03.705Z,11.98
2022-12-14T01:08:36.150Z,11.35
2022-12-14T01:11:05.671Z,13.80
2022-12-14T01:13:33.254Z,12.05
2022-12-14T01:16:11.540Z,11.43
2022-12-14T01:18:40.013Z,13.23
2022-12-14T01:21:20.148Z,12.70
2022-12-14T01:23:48.693Z,12.63
2022-12-14T01:26:17.240Z,13.23
2022-12-14T01:28:46.170Z,12.43
2022-12-14T01:31:18.637Z,12.18
2022-12-14T01:33:46.437Z,14.77
2022-12-14T01:36:16.650Z,14.43
2022-12-14T01:38:44.440Z,13.68
2022-12-14T01:41:23.090Z,15.60
2022-12-14T01:43:56.769Z,16.35
2022-12-14T01:46:45.160Z,16.33
2022-12-14T01:49:24.095Z,15.85
2022-12-14T01:52:00.988Z,16.02
2022-12-14T01:54:31.467Z,18.65
2022-12-14T01:56:58.733Z,18.33
2022-12-14T01:59:36.982Z,18.15
2022-12-14T02:02:07.208Z,19.85
2022-12-14T02:04:37.862Z,20.48
2022-12-14T02:07:05.290Z,21.20
2022-12-14T02:09:36.811Z,19.40
2022-12-14T02:12:09.981Z,23.02
2022-12-14T02:14:37.697Z,24.48
2022-12-14T02:17:06.452Z,23.17
2022-12-14T02:19:33.668Z,22.48
2022-12-14T02:22:18.847Z,25.35
2022-12-14T02:25:04.658Z,27.35
2022-12-14T02:28:26.933Z,29.25
2022-12-14T02:31:08.112Z,31.08
2022-12-14T02:33:55.686Z,31.15
2022-12-14T02:36:29.158Z,30.20
2022-12-14T02:39:25.804Z,33.47
2022-12-14T02:42:31.215Z,36.28
2022-12-14T02:45:09.823Z,33.28
2022-12-14T02:47:39.370Z,35.92
2022-12-14T02:50:14.947Z,36.60
2022-12-14T02:52:55.645Z,39.20
2022-12-14T02:55:30.491Z,38.25
2022-12-14T02:58:02.416Z,37.25
2022-12-14T03:00:33.582Z,38.95
2022-12-14T03:03:02.484Z,37.65
2022-12-14T03:05:30.134Z,37.70
2022-12-14T03:08:04.250Z,33.45
2022-12-14T03:10:57.493Z,35.80
2022-12-14T03:13:38.776Z,36.20
2022-12-14T03:16:13.543Z,36.42
2022-12-14T03:18:49.730Z,32.63
2022-12-14T03:21:21.730Z,33.10
2022-12-14T03:23:52.010Z,34.15
2022-12-14T03:26:27.968Z,32.15
2022-12-14T03:29:06.893Z,35.72
2022-12-14T03:31:40.350Z,37.40
2022-12-14T03:34:13.334Z,36.88
2022-12-14T03:36:47.361Z,40.25
2022-12-14T03:39:30.112Z,43.60
2022-12-14T03:42:14.082Z,40.92
2022-12-14T03:44:59.493Z,45.05
2022-12-14T03:47:52.422Z,40.15
2022-12-14T03:50:28.992Z,41.33
2022-12-14T03:53:07.620Z,42.35
2022-12-14T03:55:49.747Z,40.25
2022-12-14T03:58:27.141Z,38.97
2022-12-14T04:01:09.121Z,38.13
2022-12-14T04:03:50.256Z,36.80
2022-12-14T04:06:26.673Z,35.95
2022-12-14T04:09:23.038Z,35.97
2022-12-14T04:12:16.933Z,33.30
2022-12-14T04:15:08.807Z,33.92
2022-12-14T04:18:05.910Z,36.70
2022-12-14T04:20:53.752Z,32.83
2022-12-14T04:23:54.336Z,34.08
2022-12-14T04:26:27.395Z,31.30
2022-12-14T04:29:18.023Z,31.60
2022-12-14T04:31:51.539Z,30.05
2022-12-14T04:34:23.291Z,29.60
2022-12-14T04:36:56.236Z,27.15
2022-12-14T04:39:29.533Z,25.88
2022-12-14T04:42:01.014Z,25.00
2022-12-14T04:44:53.533Z,21.17
2022-12-14T04:47:29.192Z,24.58
2022-12-14T04:50:11.072Z,24.70
2022-12-14T04:52:45.894Z,27.15
2022-12-14T04:55:25.420Z,26.10
2022-12-14T04:57:58.485Z,27.88
2022-12-14T05:00:25.764Z,27.20
2022-12-14T05:03:17.040Z,26.33
2022-12-14T05:06:08.953Z,25.33
2022-12-14T05:08:57.463Z,28.08
2022-12-14T05:14:27.899Z,29.15
2022-12-14T05:16:55.746Z,28.80
2022-12-14T05:19:26.747Z,28.30
2022-12-14T05:21:54.891Z,28.38
2022-12-14T05:24:21.906Z,27.42
2022-12-14T05:26:48.982Z,25.80
2022-12-14T05:29:17.146Z,23.95
2022-12-14T05:31:49.327Z,24.55
2022-12-14T05:34:17.303Z,20.98
2022-12-14T05:36:44.444Z,23.67
2022-12-14T05:39:11.497Z,20.17
2022-12-14T05:41:38.570Z,18.45
2022-12-14T05:44:05.739Z,19.67
2022-12-14T05:46:32.780Z,17.33
2022-12-14T05:48:59.782Z,19.70
2022-12-14T05:51:26.928Z,21.73
2022-12-14T05:53:53.930Z,23.23
2022-12-14T05:56:21.221Z,23.05
2022-12-14T05:58:51.577Z,23.50
2022-12-14T06:01:19.669Z,22.88
2022-12-14T06:03:47.861Z,24.73
2022-12-14T06:06:15.343Z,25.92
2022-12-14T06:08:45.100Z,25.42
2022-12-14T06:11:20.529Z,23.88
2022-12-14T06:13:48.289Z,27.02
2022-12-14T06:16:24.656Z,26.50
2022-12-14T06:18:54.182Z,22.08
2022-12-14T06:21:24.020Z,25.15
2022-12-14T06:23:51.174Z,26.55
2022-12-14T06:26:18.759Z,24.23
2022-12-14T06:28:45.940Z,25.10
2022-12-14T06:31:24.329Z,23.73
2022-12-14T06:33:53.412Z,21.77
2022-12-14T06:36:38.131Z,19.67
2022-12-14T06:39:08.326Z,20.02
2022-12-14T06:41:35.458Z,19.23
2022-12-14T06:44:05.761Z,16.95
2022-12-14T06:46:33.022Z,15.57
2022-12-14T06:49:00.135Z,15.27
2022-12-14T06:51:27.117Z,16.25
2022-12-14T06:53:56.220Z,16.65
2022-12-14T06:56:27.813Z,20.97
2022-12-14T06:58:56.339Z,18.40
2022-12-14T07:01:25.836Z,18.02
2022-12-14T07:03:57.862Z,15.20
2022-12-14T07:06:26.857Z,14.45
2022-12-14T07:08:55.621Z,13.10
2022-12-14T07:11:23.384Z,14.43
2022-12-14T07:13:50.573Z,14.88
2022-12-14T07:16:20.228Z,17.25
2022-12-14T07:18:48.072Z,15.93
2022-12-14T07:21:17.262Z,15.77
2022-12-14T07:23:46.031Z,14.95
2022-12-14T07:26:19.088Z,15.63
2022-12-14T07:28:47.294Z,15.40
2022-12-14T07:31:17.980Z,17.05
2022-12-14T07:33:45.773Z,17.00
2022-12-14T07:36:16.140Z,17.27
2022-12-14T07:38:45.013Z,13.75
2022-12-14T07:41:22.311Z,16.70
2022-12-14T07:43:50.323Z,14.88
2022-12-14T07:46:20.291Z,14.45
2022-12-14T07:51:17.889Z,13.65
2022-12-14T07:53:45.096Z,12.70
2022-12-14T07:56:25.142Z,14.57
2022-12-14T07:58:52.782Z,13.60
2022-12-14T08:01:22.893Z,14.80
2022-12-14T08:04:04.150Z,13.85
2022-12-14T08:06:31.632Z,16.10
2022-12-14T08:08:58.902Z,15.32
2022-12-14T08:11:26.182Z,15.32
2022-12-14T08:14:17.255Z,15.57
2022-12-14T08:16:45.646Z,17.17
2022-12-14T08:19:13.711Z,16.58
2022-12-14T08:21:41.315Z,16.58
2022-12-14T08:24:11.427Z,17.63
2022-12-14T08:26:38.625Z,18.00
2022-12-14T08:29:06.662Z,19.10
2022-12-14T08:31:34.718Z,18.02
2022-12-14T08:34:02.425Z,19.42
2022-12-14T08:36:32.975Z,18.70
2022-12-14T08:39:04.822Z,18.77
2022-12-14T08:41:32.636Z,17.25
2022-12-14T08:44:01.746Z,19.45
2022-12-14T08:46:31.300Z,18.47
2022-12-14T08:48:59.028Z,18.30
2022-12-14T08:51:27.334Z,17.00
2022-12-14T08:53:55.891Z,17.20
2022-12-14T08:56:25.734Z,19.55
2022-12-14T08:58:53.056Z,20.88
2022-12-14T09:01:32.051Z,19.65
2022-12-14T09:04:08.848Z,19.58
2022-12-14T09:06:38.309Z,19.83
2022-12-14T09:09:11.952Z,18.50
2022-12-14T09:11:43.345Z,18.13
2022-12-14T09:14:10.984Z,18.38
2022-12-14T09:16:38.241Z,17.58
2022-12-14T09:19:05.434Z,20.15
2022-12-14T09:21:32.778Z,18.25
2022-12-14T09:24:00.163Z,18.20
2022-12-14T09:26:27.878Z,17.42
2022-12-14T09:28:56.593Z,18.05
2022-12-14T09:31:26.483Z,18.60
2022-12-14T09:36:25.253Z,16.45
2022-12-14T09:38:55.523Z,17.75
2022-12-14T09:41:34.678Z,17.83
2022-12-14T09:44:17.728Z,16.13
2022-12-14T09:47:10.939Z,17.20
2022-12-14T09:49:53.673Z,19.85
2022-12-14T09:52:26.453Z,18.02
2022-12-14T09:54:55.298Z,17.67
2022-12-14T09:57:30.651Z,18.95
2022-12-14T09:59:57.780Z,19.60
2022-12-14T10:02:43.025Z,20.77
2022-12-14T10:05:34.091Z,18.85
2022-12-14T10:08:13.443Z,21.75
2022-12-14T10:11:07.027Z,21.00
2022-12-14T10:13:51.473Z,25.60
2022-12-14T10:16:33.453Z,20.58
2022-12-14T10:19:35.392Z,16.98
2022-12-14T10:22:18.743Z,17.27
2022-12-14T10:25:15.071Z,17.27
2022-12-14T10:28:09.662Z,16.85
2022-12-14T10:30:36.464Z,15.95
2022-12-14T10:33:16.954Z,18.13
2022-12-14T10:36:00.395Z,15.38
2022-12-14T10:38:35.299Z,15.65
2022-12-14T10:41:29.904Z,18.13
2022-12-14T10:44:12.724Z,16.45
2022-12-14T10:47:01.205Z,17.10
2022-12-14T10:49:36.776Z,17.25
2022-12-14T10:52:12.631Z,17.92
2022-12-14T10:54:52.642Z,20.55
2022-12-14T10:57:27.485Z,19.25
2022-12-14T11:00:11.145Z,21.33
2022-12-14T11:02:42.812Z,19.30
2022-12-14T11:05:24.661Z,18.90
2022-12-14T11:07:51.681Z,19.17
2022-12-14T11:10:24.707Z,19.90
2022-12-14T11:13:12.777Z,18.83
2022-12-14T11:15:46.733Z,18.33
2022-12-14T11:18:16.600Z,21.92
2022-12-14T11:23:18.734Z,21.10
2022-12-14T11:25:49.202Z,18.58
2022-12-14T11:28:31.309Z,19.45
2022-12-14T11:31:10.809Z,22.17
2022-12-14T11:33:44.013Z,20.05
2022-12-14T11:36:42.976Z,20.33
2022-12-14T11:39:15.715Z,19.02
2022-12-14T11:41:52.462Z,20.77
2022-12-14T11:44:19.585Z,20.73
2022-12-14T11:46:56.518Z,21.55
2022-12-14T11:49:25.305Z,22.13
2022-12-14T11:51:58.495Z,21.73
2022-12-14T11:54:25.928Z,23.55
2022-12-14T11:56:59.647Z,24.90
2022-12-14T11:59:32.931Z,21.63
2022-12-14T12:02:37.466Z,21.40
2022-12-14T12:05:10.349Z,20.55
2022-12-14T12:07:40.688Z,21.30
2022-12-14T12:10:45.072Z,20.52
2022-12-14T12:13:35.710Z,20.80
2022-12-14T12:16:10.564Z,21.75
2022-12-14T12:18:46.664Z,21.17
2022-12-14T12:21:35.352Z,22.75
2022-12-14T12:24:05.306Z,19.20
2022-12-14T12:29:20.504Z,17.25
2022-12-14T12:32:08.704Z,20.60
2022-12-14T12:34:49.451Z,22.63
2022-12-14T12:37:26.646Z,19.90
2022-12-14T12:40:02.562Z,20.13
2022-12-14T12:42:50.298Z,22.98
2022-12-14T12:45:40.582Z,21.08
2022-12-14T12:48:33.416Z,20.67
2022-12-14T12:51:05.362Z,20.98
2022-12-14T12:53:39.266Z,20.80
2022-12-14T12:56:14.143Z,22.10
2022-12-14T12:58:41.558Z,23.10
2022-12-14T13:01:24.922Z,21.17
2022-12-14T13:03:57.460Z,19.10
2022-12-14T13:06:52.006Z,23.27
2022-12-14T13:09:48.903Z,20.83
2022-12-14T13:12:33.022Z,19.67
2022-12-14T13:15:03.389Z,19.98
2022-12-14T13:17:33.187Z,21.35
2022-12-14T13:20:04.334Z,19.92
2022-12-14T13:22:33.704Z,22.67
2022-12-14T13:25:11.110Z,20.33
2022-12-14T13:27:41.021Z,19.85
2022-12-14T13:30:16.720Z,18.38
2022-12-14T13:33:05.757Z,19.05
2022-12-14T13:35:32.958Z,19.25
2022-12-14T13:38:48.966Z,19.25
2022-12-14T13:41:32.495Z,18.30
2022-12-14T13:44:18.048Z,20.50
2022-12-14T13:46:45.284Z,21.80
2022-12-14T13:49:22.539Z,21.98
2022-12-14T13:51:51.302Z,22.55
2022-12-14T13:54:31.583Z,23.52
2022-12-14T13:57:23.459Z,23.58
2022-12-14T13:59:53.298Z,25.08
2022-12-14T14:02:32.422Z,25.05
2022-12-14T14:05:15.185Z,24.13
2022-12-14T14:07:53.784Z,25.42
2022-12-14T14:10:51.291Z,25.65
2022-12-14T14:13:30.069Z,25.77
2022-12-14T14:16:27.345Z,25.88
2022-12-14T14:19:13.396Z,26.15
2022-12-14T14:22:14.125Z,24.60
2022-12-14T14:24:55.193Z,25.38
2022-12-14T14:27:50.414Z,25.90
2022-12-14T14:30:27.933Z,25.75
2022-12-14T14:33:07.547Z,26.52
2022-12-14T14:35:43.092Z,26.17
2022-12-14T14:38:32.177Z,26.75
2022-12-14T14:41:18.795Z,27.95
2022-12-14T14:44:21.685Z,27.23
2022-12-14T14:46:50.557Z,27.90
2022-12-14T14:49:26.546Z,28.65
2022-12-14T14:51:53.855Z,28.35
2022-12-14T14:54:56.111Z,28.17
2022-12-14T14:57:56.467Z,28.27
2022-12-14T15:00:23.572Z,27.75
2022-12-14T15:02:54.675Z,29.30
2022-12-14T15:05:41.858Z,28.50
2022-12-14T15:08:29.298Z,29.77
2022-12-14T15:10:57.281Z,27.83
2022-12-14T15:13:28.735Z,28.00
2022-12-14T15:15:58.788Z,27.80
2022-12-14T15:18:27.250Z,28.40
2022-12-14T15:21:05.866Z,27.67
2022-12-14T15:23:38.063Z,29.58
2022-12-14T15:26:26.106Z,28.02
2022-12-14T15:28:59.232Z,30.02
2022-12-14T15:31:42.127Z,30.77
2022-12-14T15:34:19.860Z,29.58
2022-12-14T15:36:47.980Z,30.48
2022-12-14T15:39:32.868Z,32.55
2022-12-14T15:42:15.370Z,30.85
2022-12-14T15:44:54.422Z,32.08
2022-12-14T15:47:31.255Z,30.73
2022-12-14T15:50:33.933Z,31.20
2022-12-14T15:53:18.481Z,30.35
2022-12-14T15:55:56.348Z,31.05
2022-12-14T15:58:34.629Z,29.80
2022-12-14T16:01:11.732Z,32.03
2022-12-14T16:03:42.685Z,30.42
2022-12-14T16:06:12.522Z,30.70
2022-12-14T16:08:55.365Z,30.90
2022-12-14T16:11:40.377Z,29.45
2022-12-14T16:14:31.061Z,33.90
2022-12-14T16:16:59.912Z,31.10
2022-12-14T16:19:33.907Z,30.50
2022-12-14T16:22:10.489Z,31.27
2022-12-14T16:27:18.662Z,31.50
2022-12-14T16:30:06.891Z,32.50
2022-12-14T16:32:34.011Z,33.75
2022-12-14T16:35:01.858Z,35.05
2022-12-14T16:37:36.654Z,35.05
2022-12-14T16:40:04.205Z,35.13
2022-12-14T16:42:31.972Z,35.65
2022-12-14T16:44:59.052Z,38.05
2022-12-14T16:47:29.173Z,39.65
2022-12-14T16:49:59.730Z,37.00
2022-12-14T16:52:32.645Z,40.63
2022-12-14T16:55:10.689Z,40.83
2022-12-14T16:57:50.463Z,40.45
2022-12-14T17:00:26.501Z,39.60
2022-12-14T17:03:05.897Z,39.40
2022-12-14T17:05:40.183Z,38.42
2022-12-14T17:08:08.380Z,40.75
2022-12-14T17:10:35.506Z,40.83
2022-12-14T17:13:04.114Z,40.72
2022-12-14T17:15:34.517Z,42.25
2022-12-14T17:18:04.813Z,42.85
2022-12-14T17:20:39.410Z,43.72
2022-12-14T17:23:09.751Z,45.80
2022-12-14T17:25:37.071Z,48.70
2022-12-14T17:28:06.821Z,47.05
2022-12-14T17:30:34.007Z,46.95
2022-12-14T17:33:01.137Z,48.10
2022-12-14T17:35:31.650Z,45.30
2022-12-14T17:37:59.721Z,49.65
2022-12-14T17:40:27.352Z,47.95
2022-12-14T17:42:57.208Z,50.65
2022-12-14T17:47:53.614Z,45.88
2022-12-14T17:50:22.066Z,46.72
2022-12-14T17:52:50.549Z,48.45
2022-12-14T17:55:23.265Z,45.90
2022-12-14T17:57:51.412Z,47.67
2022-12-14T18:00:48.002Z,46.00
2022-12-14T18:03:17.042Z,45.88
2022-12-14T18:05:48.888Z,46.80
2022-12-14T18:08:20.571Z,43.90
2022-12-14T18:10:51.211Z,46.10
2022-12-14T18:13:18.381Z,45.47
2022-12-14T18:15:49.673Z,46.53
2022-12-14T18:18:21.915Z,48.40
2022-12-14T18:20:53.877Z,45.72
2022-12-14T18:23:22.138Z,45.85
2022-12-14T18:25:52.800Z,46.55
2022-12-14T18:28:20.651Z,43.58
2022-12-14T18:31:00.384Z,45.33
2022-12-14T18:33:28.497Z,43.88
2022-12-14T18:35:57.059Z,43.53
2022-12-14T18:38:25.174Z,48.20
2022-12-14T18:40:55.063Z,43.20
2022-12-14T18:45:53.324Z,40.60
2022-12-14T18:48:21.410Z,40.45
2022-12-14T18:50:49.821Z,42.70
2022-12-14T18:53:19.670Z,39.47
2022-12-14T18:55:48.450Z,41.25
2022-12-14T18:58:19.197Z,39.85
2022-12-14T19:00:47.897Z,40.95
2022-12-14T19:03:15.526Z,39.85
2022-12-14T19:05:42.885Z,37.90
2022-12-14T19:08:10.903Z,36.90
2022-12-14T19:10:40.576Z,39.97
2022-12-14T19:13:09.753Z,39.25
2022-12-14T19:15:36.939Z,38.22
2022-12-14T19:18:04.172Z,37.42
2022-12-14T19:20:31.335Z,37.65
2022-12-14T19:22:58.658Z,34.58
2022-12-14T19:25:25.900Z,37.50
2022-12-14T19:30:40.334Z,36.30
2022-12-14T19:33:08.302Z,36.08
2022-12-14T19:35:35.530Z,38.53
2022-12-14T19:38:02.615Z,36.80
2022-12-14T19:40:29.735Z,37.05
2022-12-14T19:42:56.858Z,36.20
2022-12-14T19:45:23.913Z,36.25
2022-12-14T19:47:51.215Z,35.97
2022-12-14T19:50:18.333Z,35.28
2022-12-14T19:52:45.498Z,38.40
2022-12-14T19:55:12.503Z,38.03
2022-12-14T19:57:40.590Z,36.95
2022-12-14T20:00:09.563Z,37.83
2022-12-14T20:02:40.017Z,37.80
2022-12-14T20:05:08.061Z,35.90
2022-12-14T20:07:40.190Z,41.58
2022-12-14T20:10:10.583Z,37.70
2022-12-14T20:12:37.572Z,37.67
2022-12-14T20:15:05.028Z,37.13
2022-12-14T20:17:32.302Z,38.35
2022-12-14T20:19:59.549Z,35.45
2022-12-14T20:22:26.882Z,35.65
2022-12-14T20:24:53.949Z,38.17
2022-12-14T20:27:21.064Z,36.83
2022-12-14T20:29:48.273Z,37.53
2022-12-14T20:32:15.365Z,38.22
2022-12-14T20:34:42.842Z,36.17
2022-12-14T20:37:10.070Z,35.55
2022-12-14T20:39:37.139Z,35.92
2022-12-14T20:42:04.174Z,37.13
2022-12-14T20:44:31.533Z,36.22
2022-12-14T20:46:58.543Z,34.90
2022-12-14T20:49:30.159Z,34.67
2022-12-14T20:51:57.690Z,34.63
2022-12-14T20:54:25.780Z,36.17
2022-12-14T20:56:52.891Z,35.42
2022-12-14T20:59:20.129Z,36.75
2022-12-14T21:01:53.581Z,38.17
2022-12-14T21:04:23.143Z,36.38
2022-12-14T21:06:50.346Z,34.15
2022-12-14T21:09:17.522Z,35.42
2022-12-14T21:12:08.696Z,35.40
2022-12-14T21:14:38.094Z,34.50
2022-12-14T21:17:06.070Z,36.95
2022-12-14T21:19:34.072Z,36.30
2022-12-14T21:22:01.134Z,34.45
2022-12-14T21:25:01.165Z,35.25
2022-12-14T21:27:25.021Z,37.15
2022-12-14T21:29:52.882Z,36.65
2022-12-14T21:32:21.494Z,43.95
2022-12-14T21:34:49.067Z,43.53
2022-12-14T21:37:16.302Z,43.85
2022-12-14T21:39:47.566Z,41.70
2022-12-14T21:42:20.923Z,42.42
2022-12-14T21:44:50.778Z,46.63
2022-12-14T21:49:49.613Z,40.33
2022-12-14T21:52:20.576Z,42.15
2022-12-14T21:54:47.799Z,43.17
2022-12-14T21:57:35.902Z,39.75
2022-12-14T22:00:05.697Z,39.08
2022-12-14T22:02:39.891Z,38.97
2022-12-14T22:05:07.593Z,41.20
2022-12-14T22:07:34.691Z,43.25
2022-12-14T22:10:02.255Z,43.08
2022-12-14T22:12:29.602Z,40.85
2022-12-14T22:14:56.661Z,40.42
2022-12-14T22:17:23.879Z,40.28
2022-12-14T22:19:52.242Z,40.85
2022-12-14T22:22:19.292Z,40.55
2022-12-14T22:24:49.743Z,40.35
2022-12-14T22:27:17.223Z,42.03
2022-12-14T22:29:44.301Z,40.38
2022-12-14T22:32:12.396Z,39.85
2022-12-14T22:34:39.785Z,42.30
2022-12-14T22:37:06.921Z,41.65
2022-12-14T22:39:33.975Z,40.15
2022-12-14T22:42:01.225Z,41.03
2022-12-14T22:44:28.498Z,41.30
2022-12-14T22:46:55.570Z,39.55
2022-12-14T22:49:22.849Z,39.08
2022-12-14T22:51:50.740Z,39.25
2022-12-14T22:54:27.855Z,40.08
2022-12-14T22:57:02.573Z,38.20
2022-12-14T23:00:05.311Z,37.90
2022-12-14T23:02:32.518Z,38.95
2022-12-14T23:04:59.813Z,40.15
2022-12-14T23:07:26.806Z,40.17
2022-12-14T23:10:12.485Z,40.33
2022-12-14T23:12:57.968Z,39.35
2022-12-14T23:15:43.701Z,40.70
2022-12-14T23:18:29.014Z,38.35
2022-12-14T23:21:15.004Z,37.95
2022-12-14T23:24:01.915Z,36.47
2022-12-14T23:26:47.983Z,36.13
2022-12-14T23:29:33.958Z,34.78
2022-12-14T23:32:19.173Z,32.90
2022-12-14T23:35:04.562Z,36.35
2022-12-14T23:37:50.291Z,36.72
2022-12-14T23:40:35.767Z,36.85
2022-12-14T23:43:36.124Z,35.10
2022-12-14T23:46:23.139Z,36.67
2022-12-14T23:49:13.699Z,36.00
2022-12-14T23:52:01.525Z,37.45
2022-12-14T23:54:47.216Z,39.67
2022-12-14T23:57:32.710Z,38.25
